Marshfield, VT (05658)

1:15 AM EST on February 27, 2015 (GMT -0500)
232 over Peacham Pond | Change Station
CLOSE
Current Station
Personal Weather Station
Location: Marshfield, VT
Elevation: 1693 ft
Nearby Weather Stations

Elev 1693 ft 44.33 °N, 72.28 °W | Updated 318 days ago

Overcast
Overcast
1 °F
Feels Like 1 °F
N
2
Wind Variable Wind from SSW
Gusts 2 mph

Today
High -- | Low -- °F
--% Chance of Precip.
Yesterday
High -- | Low -- °F
Precip. -- in
6:30 AM 5:34 PM
Waxing Gibbous, 66% visible
Pressure 30.24 in
Visibility 10.0 miles
Clouds Mostly Cloudy 9500 ft
Dew Point -4 °F
Humidity 80%
Rainfall 0.00 in
Snow Depth Not available.
UV 0 out of 12
Pollen .30 out of 12
Air Quality Not available.
Flu Activity Not available.
METAR KMPV 270551Z AUTO 32003KT 10SM BKN095 M17/M24 A3014 RMK AO2 SLP239 T11721239 11144 21178 53012

More Conditions Fewer Conditions

Pressure 30.24 in
Visibility 10.0 miles
Clouds Mostly Cloudy 9500 ft
Dew Point -4 °F
Humidity 80%
Rainfall 0.00 in
Snow Depth Not available.
UV 0 out of 12
Pollen .30 out of 12
Air Quality Not available.
Flu Activity Not available.
METAR KMPV 270551Z AUTO 32003KT 10SM BKN095 M17/M24 A3014 RMK AO2 SLP239 T11721239 11144 21178 53012

More Conditions Fewer Conditions

10-Day Weather Forecast

Almanac

Astronomy

Feb. 27, 2015 Rise Set
Actual Time
Civil Twilight
Nautical Twilight
Astronomical Twilight
Moon
Length of Visible Light
Length of Day
Tomorrow will be .
, % of the Moon is Illuminated

Today's Extremes

State Highs State Lows

Community

WunderPhotos

Upload Photos

1,800,643 photos uploaded!

WunderBlogs® & News

Nearby

Air Quality

  Air Quality AQ Index Pollutant
Not available.

Snow Depth

Station Depth Elevation

Earthquake Activity

City Distance Mag. Time & Date
Minimum magnitude displayed is 2.5.

Coastal Water Temperatures

Place Temperature

Nearby Weather Stations